sensor_id;sensor_type;location;lat;lon;timestamp;pressure;altitude;pressure_sealevel;temperature;humidity
23643;BME280;11998;55.788;37.572;2023-02-17T00:00:32;99848.38;;;-4.65;100.00
23643;BME280;11998;55.788;37.572;2023-02-17T00:01:33;99851.22;;;-4.78;100.00
23643;BME280;11998;55.788;37.572;2023-02-17T00:02:34;99847.56;;;-4.83;100.00
23643;BME280;11998;55.788;37.572;2023-02-17T00:03:35;99844.44;;;-4.95;100.00
23643;BME280;11998;55.788;37.572;2023-02-17T00:04:35;99849.59;;;-4.95;100.00
23643;BME280;11998;55.788;37.572;2023-02-17T00:05:38;99855.63;;;-4.95;100.00
23643;BME280;11998;55.788;37.572;2023-02-17T00:06:39;99845.31;;;-4.95;100.00
23643;BME280;11998;55.788;37.572;2023-02-17T00:07:40;99861.69;;;-4.94;100.00
23643;BME280;11998;55.788;37.572;2023-02-17T00:08:40;99855.22;;;-5.04;100.00
23643;BME280;11998;55.788;37.572;2023-02-17T00:09:41;99857.78;;;-5.04;100.00
23643;BME280;11998;55.788;37.572;2023-02-17T00:10:41;99852.97;;;-4.96;100.00
23643;BME280;11998;55.788;37.572;2023-02-17T00:11:42;99854.75;;;-4.95;100.00
23643;BME280;11998;55.788;37.572;2023-02-17T00:12:42;99854.88;;;-4.92;100.00
23643;BME280;11998;55.788;37.572;2023-02-17T00:13:44;99853.69;;;-4.81;100.00
23643;BME280;11998;55.788;37.572;2023-02-17T00:14:44;99848.75;;;-4.75;100.00
23643;BME280;11998;55.788;37.572;2023-02-17T00:15:45;99851.91;;;-4.82;100.00
23643;BME280;11998;55.788;37.572;2023-02-17T00:16:45;99843.81;;;-4.70;100.00
23643;BME280;11998;55.788;37.572;2023-02-17T00:17:46;99845.78;;;-4.65;100.00
23643;BME280;11998;55.788;37.572;2023-02-17T00:18:50;99846.47;;;-4.69;100.00
23643;BME280;11998;55.788;37.572;2023-02-17T00:19:53;99847.41;;;-4.67;100.00
23643;BME280;11998;55.788;37.572;2023-02-17T00:20:54;99854.22;;;-4.69;100.00
23643;BME280;11998;55.788;37.572;2023-02-17T00:21:59;99847.28;;;-4.70;100.00
23643;BME280;11998;55.788;37.572;2023-02-17T00:23:00;99845.66;;;-4.68;100.00
23643;BME280;11998;55.788;37.572;2023-02-17T00:24:00;99851.91;;;-4.63;100.00
23643;BME280;11998;55.788;37.572;2023-02-17T00:25:01;99851.97;;;-4.61;100.00
23643;BME280;11998;55.788;37.572;2023-02-17T00:26:04;99861.69;;;-4.56;100.00
23643;BME280;11998;55.788;37.572;2023-02-17T00:27:05;99852.19;;;-4.57;100.00
23643;BME280;11998;55.788;37.572;2023-02-17T00:28:06;99850.19;;;-4.62;100.00
23643;BME280;11998;55.788;37.572;2023-02-17T00:29:07;99849.06;;;-4.69;100.00
23643;BME280;11998;55.788;37.572;2023-02-17T00:30:07;99849.31;;;-4.82;100.00
23643;BME280;11998;55.788;37.572;2023-02-17T00:31:19;99848.91;;;-4.72;100.00
23643;BME280;11998;55.788;37.572;2023-02-17T00:32:20;99849.88;;;-4.70;100.00
23643;BME280;11998;55.788;37.572;2023-02-17T00:33:21;99850.94;;;-4.65;100.00
23643;BME280;11998;55.788;37.572;2023-02-17T00:34:21;99842.72;;;-4.56;100.00
23643;BME280;11998;55.788;37.572;2023-02-17T00:35:22;99844.44;;;-4.57;100.00
23643;BME280;11998;55.788;37.572;2023-02-17T00:36:24;99847.97;;;-4.55;100.00
23643;BME280;11998;55.788;37.572;2023-02-17T00:37:24;99846.44;;;-4.50;100.00
23643;BME280;11998;55.788;37.572;2023-02-17T00:38:25;99848.72;;;-4.57;100.00
23643;BME280;11998;55.788;37.572;2023-02-17T00:39:25;99850.66;;;-4.52;100.00
23643;BME280;11998;55.788;37.572;2023-02-17T00:40:26;99843.69;;;-4.54;100.00
23643;BME280;11998;55.788;37.572;2023-02-17T00:41:27;99838.31;;;-4.59;100.00
23643;BME280;11998;55.788;37.572;2023-02-17T00:42:28;99843.31;;;-4.62;100.00
23643;BME280;11998;55.788;37.572;2023-02-17T00:43:28;99838.03;;;-4.65;100.00
23643;BME280;11998;55.788;37.572;2023-02-17T00:44:29;99844.44;;;-4.57;100.00
23643;BME280;11998;55.788;37.572;2023-02-17T00:45:29;99841.91;;;-4.55;100.00
23643;BME280;11998;55.788;37.572;2023-02-17T00:46:30;99840.28;;;-4.53;100.00
23643;BME280;11998;55.788;37.572;2023-02-17T00:47:31;99844.44;;;-4.57;100.00
23643;BME280;11998;55.788;37.572;2023-02-17T00:48:31;99843.19;;;-4.65;100.00
23643;BME280;11998;55.788;37.572;2023-02-17T00:49:32;99842.31;;;-4.65;100.00
23643;BME280;11998;55.788;37.572;2023-02-17T00:50:32;99847.28;;;-4.70;100.00
23643;BME280;11998;55.788;37.572;2023-02-17T00:51:33;99841.56;;;-4.82;100.00
23643;BME280;11998;55.788;37.572;2023-02-17T00:52:34;99837.22;;;-4.83;100.00
23643;BME280;11998;55.788;37.572;2023-02-17T00:53:35;99839.38;;;-4.92;100.00
23643;BME280;11998;55.788;37.572;2023-02-17T00:54:36;99831.03;;;-4.87;100.00
23643;BME280;11998;55.788;37.572;2023-02-17T00:55:38;99830.50;;;-4.80;100.00
23643;BME280;11998;55.788;37.572;2023-02-17T00:56:39;99831.78;;;-4.89;100.00
23643;BME280;11998;55.788;37.572;2023-02-17T00:57:40;99828.31;;;-4.90;100.00
23643;BME280;11998;55.788;37.572;2023-02-17T00:58:40;99833.53;;;-4.88;100.00
23643;BME280;11998;55.788;37.572;2023-02-17T00:59:41;99836.13;;;-4.88;100.00
23643;BME280;11998;55.788;37.572;2023-02-17T01:00:41;99836.00;;;-4.91;100.00
23643;BME280;11998;55.788;37.572;2023-02-17T01:01:42;99838.50;;;-4.93;100.00
23643;BME280;11998;55.788;37.572;2023-02-17T01:02:43;99838.63;;;-4.90;100.00
23643;BME280;11998;55.788;37.572;2023-02-17T01:03:43;99840.34;;;-4.90;100.00
23643;BME280;11998;55.788;37.572;2023-02-17T01:04:44;99835.25;;;-4.89;100.00
23643;BME280;11998;55.788;37.572;2023-02-17T01:05:46;99831.97;;;-4.85;100.00
23643;BME280;11998;55.788;37.572;2023-02-17T01:06:47;99827.69;;;-4.84;100.00
23643;BME280;11998;55.788;37.572;2023-02-17T01:07:48;99832.38;;;-4.76;100.00
23643;BME280;11998;55.788;37.572;2023-02-17T01:08:48;99827.44;;;-4.71;100.00
23643;BME280;11998;55.788;37.572;2023-02-17T01:09:49;99823.06;;;-4.72;100.00
23643;BME280;11998;55.788;37.572;2023-02-17T01:10:50;99822.66;;;-4.62;100.00
23643;BME280;11998;55.788;37.572;2023-02-17T01:11:51;99821.16;;;-4.57;100.00
23643;BME280;11998;55.788;37.572;2023-02-17T01:12:52;99818.44;;;-4.60;100.00
23643;BME280;11998;55.788;37.572;2023-02-17T01:13:53;99818.78;;;-4.72;100.00
23643;BME280;11998;55.788;37.572;2023-02-17T01:14:54;99815.53;;;-4.67;100.00
23643;BME280;11998;55.788;37.572;2023-02-17T01:15:55;99824.44;;;-4.80;100.00
23643;BME280;11998;55.788;37.572;2023-02-17T01:16:55;99816.88;;;-4.76;100.00
23643;BME280;11998;55.788;37.572;2023-02-17T01:17:56;99826.63;;;-4.70;100.00
23643;BME280;11998;55.788;37.572;2023-02-17T01:18:56;99822.34;;;-4.69;100.00
23643;BME280;11998;55.788;37.572;2023-02-17T01:19:57;99823.28;;;-4.67;100.00
23643;BME280;11998;55.788;37.572;2023-02-17T01:20:57;99828.50;;;-4.66;100.00
23643;BME280;11998;55.788;37.572;2023-02-17T01:21:58;99821.72;;;-4.64;100.00
23643;BME280;11998;55.788;37.572;2023-02-17T01:22:58;99828.91;;;-4.57;100.00
23643;BME280;11998;55.788;37.572;2023-02-17T01:24:02;99822.00;;;-4.58;100.00
23643;BME280;11998;55.788;37.572;2023-02-17T01:25:03;99832.09;;;-4.62;100.00
23643;BME280;11998;55.788;37.572;2023-02-17T01:26:03;99821.59;;;-4.67;100.00
23643;BME280;11998;55.788;37.572;2023-02-17T01:27:04;99827.50;;;-4.69;100.00
23643;BME280;11998;55.788;37.572;2023-02-17T01:28:06;99828.38;;;-4.69;100.00
23643;BME280;11998;55.788;37.572;2023-02-17T01:29:07;99820.56;;;-4.70;100.00
23643;BME280;11998;55.788;37.572;2023-02-17T01:30:08;99829.22;;;-4.70;100.00
23643;BME280;11998;55.788;37.572;2023-02-17T01:31:09;99828.31;;;-4.70;100.00
23643;BME280;11998;55.788;37.572;2023-02-17T01:32:10;99825.63;;;-4.72;100.00
23643;BME280;11998;55.788;37.572;2023-02-17T01:33:11;99827.97;;;-4.78;100.00
23643;BME280;11998;55.788;37.572;2023-02-17T01:34:11;99820.16;;;-4.80;100.00
23643;BME280;11998;55.788;37.572;2023-02-17T01:35:12;99826.47;;;-4.73;100.00
23643;BME280;11998;55.788;37.572;2023-02-17T01:36:14;99822.94;;;-4.75;100.00
23643;BME280;11998;55.788;37.572;2023-02-17T01:37:15;99829.59;;;-4.80;100.00
23643;BME280;11998;55.788;37.572;2023-02-17T01:38:15;99827.84;;;-4.81;100.00
23643;BME280;11998;55.788;37.572;2023-02-17T01:39:17;99823.06;;;-4.72;100.00
23643;BME280;11998;55.788;37.572;2023-02-17T01:40:18;99826.47;;;-4.73;100.00
23643;BME280;11998;55.788;37.572;2023-02-17T01:41:20;99826.22;;;-4.79;100.00
23643;BME280;11998;55.788;37.572;2023-02-17T01:42:21;99829.75;;;-4.77;100.00
23643;BME280;11998;55.788;37.572;2023-02-17T01:43:22;99826.34;;;-4.76;100.00
23643;BME280;11998;55.788;37.572;2023-02-17T01:44:24;99826.47;;;-4.73;100.00
23643;BME280;11998;55.788;37.572;2023-02-17T01:45:34;99819.88;;;-4.66;100.00
23643;BME280;11998;55.788;37.572;2023-02-17T01:46:36;99826.00;;;-4.64;100.00
23643;BME280;11998;55.788;37.572;2023-02-17T01:47:37;99825.09;;;-4.65;100.00
23643;BME280;11998;55.788;37.572;2023-02-17T01:48:45;99826.63;;;-4.70;100.00
23643;BME280;11998;55.788;37.572;2023-02-17T01:49:47;99826.34;;;-4.76;100.00
23643;BME280;11998;55.788;37.572;2023-02-17T01:52:05;99823.06;;;-4.72;100.00
23643;BME280;11998;55.788;37.572;2023-02-17T01:53:09;99826.75;;;-4.67;100.00
23643;BME280;11998;55.788;37.572;2023-02-17T01:54:59;99821.72;;;-4.64;100.00
23643;BME280;11998;55.788;37.572;2023-02-17T01:55:34;99829.03;;;-4.54;100.00
23643;BME280;11998;55.788;37.572;2023-02-17T01:56:39;99828.22;;;-4.53;100.00
23643;BME280;11998;55.788;37.572;2023-02-17T01:57:42;99830.41;;;-4.62;100.00
23643;BME280;11998;55.788;37.572;2023-02-17T01:58:48;99829.28;;;-4.68;100.00
23643;BME280;11998;55.788;37.572;2023-02-17T01:59:50;99836.97;;;-4.70;100.00
23643;BME280;11998;55.788;37.572;2023-02-17T02:00:52;99837.09;;;-4.67;100.00
23643;BME280;11998;55.788;37.572;2023-02-17T02:01:58;99830.16;;;-4.68;100.00
23643;BME280;11998;55.788;37.572;2023-02-17T02:03:00;99828.63;;;-4.63;100.00
23643;BME280;11998;55.788;37.572;2023-02-17T02:04:04;99832.66;;;-4.69;100.00
23643;BME280;11998;55.788;37.572;2023-02-17T02:05:05;99835.19;;;-4.71;100.00
23643;BME280;11998;55.788;37.572;2023-02-17T02:06:10;99828.09;;;-4.75;100.00
23643;BME280;11998;55.788;37.572;2023-02-17T02:07:16;99836.06;;;-4.70;100.00
23643;BME280;11998;55.788;37.572;2023-02-17T02:08:18;99836.84;;;-4.72;100.00
23643;BME280;11998;55.788;37.572;2023-02-17T02:09:29;99836.78;;;-4.73;100.00
23643;BME280;11998;55.788;37.572;2023-02-17T02:10:30;99841.97;;;-4.73;100.00
23643;BME280;11998;55.788;37.572;2023-02-17T02:11:31;99835.84;;;-4.75;100.00
23643;BME280;11998;55.788;37.572;2023-02-17T02:12:34;99837.56;;;-4.76;100.00
23643;BME280;11998;55.788;37.572;2023-02-17T02:13:35;99832.78;;;-4.66;100.00
23643;BME280;11998;55.788;37.572;2023-02-17T02:14:35;99836.44;;;-4.61;100.00
23643;BME280;11998;55.788;37.572;2023-02-17T02:15:41;99832.94;;;-4.63;100.00
23643;BME280;11998;55.788;37.572;2023-02-17T02:19:44;99826.22;;;-4.79;100.00
23643;BME280;11998;55.788;37.572;2023-02-17T02:20:56;99825.91;;;-4.85;100.00
23643;BME280;11998;55.788;37.572;2023-02-17T02:27:25;99826.56;;;-5.09;100.00
23643;BME280;11998;55.788;37.572;2023-02-17T02:33:37;99828.44;;;-4.87;100.00
23643;BME280;11998;55.788;37.572;2023-02-17T02:35:00;99825.44;;;-4.77;100.00
23643;BME280;11998;55.788;37.572;2023-02-17T02:36:17;99833.41;;;-4.72;100.00
23643;BME280;11998;55.788;37.572;2023-02-17T02:37:29;99824.97;;;-4.68;100.00
23643;BME280;11998;55.788;37.572;2023-02-17T02:38:57;99822.06;;;-4.56;100.00
23643;BME280;11998;55.788;37.572;2023-02-17T02:40:03;99819.06;;;-4.65;100.00
23643;BME280;11998;55.788;37.572;2023-02-17T02:41:12;99821.78;;;-4.62;100.00
23643;BME280;11998;55.788;37.572;2023-02-17T02:42:20;99811.41;;;-4.43;100.00
23643;BME280;11998;55.788;37.572;2023-02-17T02:43:23;99818.75;;;-4.33;100.00
23643;BME280;11998;55.788;37.572;2023-02-17T02:44:24;99815.53;;;-4.27;100.00
23643;BME280;11998;55.788;37.572;2023-02-17T02:45:24;99823.16;;;-4.30;100.00
23643;BME280;11998;55.788;37.572;2023-02-17T02:46:25;99819.88;;;-4.26;100.00
23643;BME280;11998;55.788;37.572;2023-02-17T02:47:51;99818.63;;;-4.15;100.00
23643;BME280;11998;55.788;37.572;2023-02-17T02:48:52;99816.59;;;-4.22;100.00
23643;BME280;11998;55.788;37.572;2023-02-17T02:49:53;99818.25;;;-4.24;100.00
23643;BME280;11998;55.788;37.572;2023-02-17T02:53:07;99816.81;;;-4.18;100.00
23643;BME280;11998;55.788;37.572;2023-02-17T02:54:04;99809.53;;;-4.26;100.00
23643;BME280;11998;55.788;37.572;2023-02-17T02:56:49;99820.88;;;-4.44;100.00
23643;BME280;11998;55.788;37.572;2023-02-17T02:57:58;99830.94;;;-4.50;100.00
23643;BME280;11998;55.788;37.572;2023-02-17T03:03:22;99831.88;;;-4.48;100.00
23643;BME280;11998;55.788;37.572;2023-02-17T03:06:05;99834.00;;;-4.39;100.00
23643;BME280;11998;55.788;37.572;2023-02-17T03:07:13;99828.34;;;-4.30;100.00
23643;BME280;11998;55.788;37.572;2023-02-17T03:08:40;99835.81;;;-4.36;100.00
23643;BME280;11998;55.788;37.572;2023-02-17T03:09:43;99839.97;;;-4.40;100.00
23643;BME280;11998;55.788;37.572;2023-02-17T03:10:48;99834.06;;;-4.37;100.00
23643;BME280;11998;55.788;37.572;2023-02-17T03:11:49;99834.75;;;-4.41;100.00
23643;BME280;11998;55.788;37.572;2023-02-17T03:12:51;99830.41;;;-4.43;100.00
23643;BME280;11998;55.788;37.572;2023-02-17T03:13:51;99831.47;;;-4.37;100.00
23643;BME280;11998;55.788;37.572;2023-02-17T03:14:56;99832.91;;;-4.44;100.00
23643;BME280;11998;55.788;37.572;2023-02-17T03:15:59;99823.06;;;-4.53;100.00
23643;BME280;11998;55.788;37.572;2023-02-17T03:16:59;99826.28;;;-4.37;100.00
23643;BME280;11998;55.788;37.572;2023-02-17T03:18:01;99822.88;;;-4.36;100.00
23643;BME280;11998;55.788;37.572;2023-02-17T03:19:02;99819.63;;;-4.32;100.00
23643;BME280;11998;55.788;37.572;2023-02-17T03:20:04;99814.47;;;-4.32;100.00
23643;BME280;11998;55.788;37.572;2023-02-17T03:21:13;99818.59;;;-4.36;100.00
23643;BME280;11998;55.788;37.572;2023-02-17T03:22:20;99823.84;;;-4.34;100.00
23643;BME280;11998;55.788;37.572;2023-02-17T03:23:21;99817.06;;;-4.32;100.00
23643;BME280;11998;55.788;37.572;2023-02-17T03:24:22;99810.03;;;-4.35;100.00
23643;BME280;11998;55.788;37.572;2023-02-17T03:25:23;99812.00;;;-4.29;100.00
23643;BME280;11998;55.788;37.572;2023-02-17T03:26:23;99806.13;;;-4.25;100.00
23643;BME280;11998;55.788;37.572;2023-02-17T03:27:24;99819.47;;;-4.16;100.00
23643;BME280;11998;55.788;37.572;2023-02-17T03:28:24;99813.06;;;-4.24;100.00
23643;BME280;11998;55.788;37.572;2023-02-17T03:29:25;99808.72;;;-4.25;100.00
23643;BME280;11998;55.788;37.572;2023-02-17T03:30:26;99805.06;;;-4.30;100.00
23643;BME280;11998;55.788;37.572;2023-02-17T03:31:27;99811.31;;;-4.25;100.00
23643;BME280;11998;55.788;37.572;2023-02-17T03:32:27;99802.72;;;-4.24;100.00
23643;BME280;11998;55.788;37.572;2023-02-17T03:33:28;99806.13;;;-4.25;100.00
23643;BME280;11998;55.788;37.572;2023-02-17T03:34:28;99810.06;;;-4.14;100.00
23643;BME280;11998;55.788;37.572;2023-02-17T03:35:29;99804.88;;;-4.14;100.00
23643;BME280;11998;55.788;37.572;2023-02-17T03:36:29;99800.97;;;-4.25;100.00
23643;BME280;11998;55.788;37.572;2023-02-17T03:37:30;99809.31;;;-4.32;100.00
23643;BME280;11998;55.788;37.572;2023-02-17T03:38:30;99810.91;;;-4.34;100.00
23643;BME280;11998;55.788;37.572;2023-02-17T03:39:31;99808.47;;;-4.31;100.00
23643;BME280;11998;55.788;37.572;2023-02-17T03:40:31;99815.34;;;-4.32;100.00
23643;BME280;11998;55.788;37.572;2023-02-17T03:41:32;99818.13;;;-4.27;100.00
23643;BME280;11998;55.788;37.572;2023-02-17T03:42:32;99811.81;;;-4.34;100.00
23643;BME280;11998;55.788;37.572;2023-02-17T03:43:33;99812.44;;;-4.39;100.00
23643;BME280;11998;55.788;37.572;2023-02-17T03:44:34;99820.31;;;-4.36;100.00
23643;BME280;11998;55.788;37.572;2023-02-17T03:45:36;99817.59;;;-4.39;100.00
23643;BME280;11998;55.788;37.572;2023-02-17T03:46:38;99819.25;;;-4.41;100.00
23643;BME280;11998;55.788;37.572;2023-02-17T03:47:39;99817.25;;;-4.28;100.00
23643;BME280;11998;55.788;37.572;2023-02-17T03:48:40;99816.47;;;-4.25;100.00
23643;BME280;11998;55.788;37.572;2023-02-17T03:49:40;99820.72;;;-4.27;100.00
23643;BME280;11998;55.788;37.572;2023-02-17T03:50:41;99816.84;;;-4.37;100.00
23643;BME280;11998;55.788;37.572;2023-02-17T03:51:41;99827.47;;;-4.31;100.00
23643;BME280;11998;55.788;37.572;2023-02-17T03:52:42;99815.97;;;-4.37;100.00
23643;BME280;11998;55.788;37.572;2023-02-17T03:53:43;99822.00;;;-4.37;100.00
23643;BME280;11998;55.788;37.572;2023-02-17T03:54:44;99825.53;;;-4.35;100.00
23643;BME280;11998;55.788;37.572;2023-02-17T03:55:44;99812.19;;;-4.25;100.00
23643;BME280;11998;55.788;37.572;2023-02-17T03:56:45;99813.06;;;-4.24;100.00
23643;BME280;11998;55.788;37.572;2023-02-17T03:57:45;99822.41;;;-4.28;100.00
23643;BME280;11998;55.788;37.572;2023-02-17T03:58:46;99815.09;;;-4.17;100.00
23643;BME280;11998;55.788;37.572;2023-02-17T03:59:46;99824.66;;;-4.35;100.00
23643;BME280;11998;55.788;37.572;2023-02-17T04:00:47;99822.75;;;-4.39;100.00
23643;BME280;11998;55.788;37.572;2023-02-17T04:01:47;99825.09;;;-4.46;100.00
23643;BME280;11998;55.788;37.572;2023-02-17T04:02:48;99823.25;;;-4.48;100.00
23643;BME280;11998;55.788;37.572;2023-02-17T04:03:49;99822.66;;;-4.43;100.00
23643;BME280;11998;55.788;37.572;2023-02-17T04:04:50;99820.00;;;-4.44;100.00
23643;BME280;11998;55.788;37.572;2023-02-17T04:05:51;99826.00;;;-4.45;100.00
23643;BME280;11998;55.788;37.572;2023-02-17T04:06:53;99826.16;;;-4.40;100.00
23643;BME280;11998;55.788;37.572;2023-02-17T04:07:54;99826.94;;;-4.43;100.00
23643;BME280;11998;55.788;37.572;2023-02-17T04:08:54;99826.41;;;-4.34;100.00
23643;BME280;11998;55.788;37.572;2023-02-17T04:09:55;99822.34;;;-4.29;100.00
23643;BME280;11998;55.788;37.572;2023-02-17T04:10:59;99828.59;;;-4.24;100.00
23643;BME280;11998;55.788;37.572;2023-02-17T04:11:59;99820.28;;;-4.17;100.00
23643;BME280;11998;55.788;37.572;2023-02-17T04:13:00;99826.28;;;-4.18;100.00
23643;BME280;11998;55.788;37.572;2023-02-17T04:14:00;99820.31;;;-4.36;100.00
23643;BME280;11998;55.788;37.572;2023-02-17T04:15:01;99831.53;;;-4.36;100.00
23643;BME280;11998;55.788;37.572;2023-02-17T04:16:03;99827.28;;;-4.55;100.00
23643;BME280;11998;55.788;37.572;2023-02-17T04:17:03;99823.47;;;-4.63;100.00
23643;BME280;11998;55.788;37.572;2023-02-17T04:18:04;99824.41;;;-4.61;100.00
23643;BME280;11998;55.788;37.572;2023-02-17T04:19:05;99827.28;;;-4.55;100.00
23643;BME280;11998;55.788;37.572;2023-02-17T04:20:06;99821.84;;;-4.61;100.00
23643;BME280;11998;55.788;37.572;2023-02-17T04:21:07;99823.06;;;-4.72;100.00
23643;BME280;11998;55.788;37.572;2023-02-17T04:22:07;99821.16;;;-4.76;100.00
23643;BME280;11998;55.788;37.572;2023-02-17T04:23:09;99819.56;;;-4.93;100.00
23643;BME280;11998;55.788;37.572;2023-02-17T04:24:09;99820.63;;;-4.88;100.00
23643;BME280;11998;55.788;37.572;2023-02-17T04:25:10;99823.41;;;-4.84;100.00
23643;BME280;11998;55.788;37.572;2023-02-17T04:26:10;99820.91;;;-4.82;100.00
23643;BME280;11998;55.788;37.572;2023-02-17T04:27:11;99814.22;;;-4.77;100.00
23643;BME280;11998;55.788;37.572;2023-02-17T04:28:12;99821.28;;;-4.73;100.00
23643;BME280;11998;55.788;37.572;2023-02-17T04:29:13;99817.91;;;-4.72;100.00
23643;BME280;11998;55.788;37.572;2023-02-17T04:30:14;99823.06;;;-4.72;100.00
23643;BME280;11998;55.788;37.572;2023-02-17T04:31:14;99830.28;;;-4.65;100.00
23643;BME280;11998;55.788;37.572;2023-02-17T04:32:15;99820.88;;;-4.63;100.00
23643;BME280;11998;55.788;37.572;2023-02-17T04:33:16;99815.19;;;-4.56;100.00
23643;BME280;11998;55.788;37.572;2023-02-17T04:34:17;99821.16;;;-4.57;100.00
23643;BME280;11998;55.788;37.572;2023-02-17T04:35:17;99826.59;;;-4.51;100.00
23643;BME280;11998;55.788;37.572;2023-02-17T04:36:18;99821.41;;;-4.51;100.00
23643;BME280;11998;55.788;37.572;2023-02-17T04:37:19;99827.84;;;-4.81;100.00
23643;BME280;11998;55.788;37.572;2023-02-17T04:38:19;99821.63;;;-4.85;100.00
23643;BME280;11998;55.788;37.572;2023-02-17T04:39:20;99829.47;;;-4.83;100.00
23643;BME280;11998;55.788;37.572;2023-02-17T04:40:21;99823.06;;;-4.72;100.00
23643;BME280;11998;55.788;37.572;2023-02-17T04:41:21;99819.69;;;-4.71;100.00
23643;BME280;11998;55.788;37.572;2023-02-17T04:42:22;99823.34;;;-4.85;100.00
23643;BME280;11998;55.788;37.572;2023-02-17T04:43:23;99827.34;;;-4.73;100.00
23643;BME280;11998;55.788;37.572;2023-02-17T04:44:24;99824.97;;;-4.68;100.00
23643;BME280;11998;55.788;37.572;2023-02-17T04:45:25;99826.88;;;-4.64;100.00
23643;BME280;11998;55.788;37.572;2023-02-17T04:46:25;99833.16;;;-4.59;100.00
23643;BME280;11998;55.788;37.572;2023-02-17T04:47:26;99825.53;;;-4.56;100.00
23643;BME280;11998;55.788;37.572;2023-02-17T04:48:27;99826.34;;;-4.57;100.00
23643;BME280;11998;55.788;37.572;2023-02-17T04:49:27;99829.88;;;-4.55;100.00
23643;BME280;11998;55.788;37.572;2023-02-17T04:50:28;99828.16;;;-4.54;100.00
23643;BME280;11998;55.788;37.572;2023-02-17T04:51:29;99842.78;;;-4.55;100.00
23643;BME280;11998;55.788;37.572;2023-02-17T04:52:29;99833.69;;;-4.66;100.00
23643;BME280;11998;55.788;37.572;2023-02-17T04:53:30;99836.31;;;-4.64;100.00
23643;BME280;11998;55.788;37.572;2023-02-17T04:54:30;99840.44;;;-4.69;100.00
23643;BME280;11998;55.788;37.572;2023-02-17T04:55:31;99838.44;;;-4.75;100.00
23643;BME280;11998;55.788;37.572;2023-02-17T04:56:32;99841.41;;;-4.85;100.00
23643;BME280;11998;55.788;37.572;2023-02-17T04:57:34;99830.69;;;-4.94;100.00
23643;BME280;11998;55.788;37.572;2023-02-17T04:58:35;99833.41;;;-4.91;100.00
23643;BME280;11998;55.788;37.572;2023-02-17T04:59:35;99835.63;;;-4.99;100.00
23643;BME280;11998;55.788;37.572;2023-02-17T05:00:36;99835.88;;;-5.12;100.00
23643;BME280;11998;55.788;37.572;2023-02-17T05:01:36;99837.72;;;-5.10;100.00
23643;BME280;11998;55.788;37.572;2023-02-17T05:02:37;99838.16;;;-5.20;100.00
23643;BME280;11998;55.788;37.572;2023-02-17T05:03:38;99835.00;;;-5.13;100.00
23643;BME280;11998;55.788;37.572;2023-02-17T05:04:39;99832.66;;;-5.08;100.00
23643;BME280;11998;55.788;37.572;2023-02-17T05:05:39;99839.22;;;-5.15;100.00
23643;BME280;11998;55.788;37.572;2023-02-17T05:06:40;99835.13;;;-5.10;100.00
23643;BME280;11998;55.788;37.572;2023-02-17T05:07:41;99830.13;;;-5.07;100.00
23643;BME280;11998;55.788;37.572;2023-02-17T05:08:42;99827.75;;;-5.02;100.00
23643;BME280;11998;55.788;37.572;2023-02-17T05:09:42;99835.00;;;-5.13;100.00
23643;BME280;11998;55.788;37.572;2023-02-17T05:10:43;99832.78;;;-5.05;100.00
23643;BME280;11998;55.788;37.572;2023-02-17T05:11:44;99833.25;;;-5.14;100.00
23643;BME280;11998;55.788;37.572;2023-02-17T05:12:44;99838.69;;;-5.08;100.00
23643;BME280;11998;55.788;37.572;2023-02-17T05:13:45;99835.06;;;-5.11;100.00
23643;BME280;11998;55.788;37.572;2023-02-17T05:14:45;99833.53;;;-5.08;100.00
23643;BME280;11998;55.788;37.572;2023-02-17T05:15:46;99836.19;;;-5.06;100.00
23643;BME280;11998;55.788;37.572;2023-02-17T05:16:46;99835.13;;;-5.10;100.00
23643;BME280;11998;55.788;37.572;2023-02-17T05:17:47;99833.25;;;-5.14;100.00
23643;BME280;11998;55.788;37.572;2023-02-17T05:18:47;99834.94;;;-5.14;100.00
23643;BME280;11998;55.788;37.572;2023-02-17T05:19:48;99840.03;;;-5.16;100.00
23643;BME280;11998;55.788;37.572;2023-02-17T05:20:49;99839.91;;;-5.19;100.00
23643;BME280;11998;55.788;37.572;2023-02-17T05:21:49;99833.13;;;-5.17;100.00
23643;BME280;11998;55.788;37.572;2023-02-17T05:22:50;99838.34;;;-5.15;100.00
23643;BME280;11998;55.788;37.572;2023-02-17T05:23:51;99838.53;;;-5.11;100.00
23643;BME280;11998;55.788;37.572;2023-02-17T05:24:52;99833.66;;;-5.05;100.00
23643;BME280;11998;55.788;37.572;2023-02-17T05:25:52;99827.13;;;-4.96;100.00
23643;BME280;11998;55.788;37.572;2023-02-17T05:26:53;99830.94;;;-4.88;100.00
23643;BME280;11998;55.788;37.572;2023-02-17T05:27:53;99831.09;;;-4.85;100.00
23643;BME280;11998;55.788;37.572;2023-02-17T05:28:54;99843.34;;;-4.81;100.00
23643;BME280;11998;55.788;37.572;2023-02-17T05:29:54;99831.25;;;-4.82;100.00
23643;BME280;11998;55.788;37.572;2023-02-17T05:30:55;99839.53;;;-4.89;100.00
23643;BME280;11998;55.788;37.572;2023-02-17T05:31:55;99838.28;;;-4.97;100.00
23643;BME280;11998;55.788;37.572;2023-02-17T05:32:56;99832.91;;;-5.02;100.00
23643;BME280;11998;55.788;37.572;2023-02-17T05:33:56;99833.13;;;-4.97;100.00
23643;BME280;11998;55.788;37.572;2023-02-17T05:34:57;99829.81;;;-4.95;100.00
23643;BME280;11998;55.788;37.572;2023-02-17T05:36:05;99832.47;;;-4.93;100.00
23643;BME280;11998;55.788;37.572;2023-02-17T05:37:06;99835.56;;;-5.00;100.00
23643;BME280;11998;55.788;37.572;2023-02-17T05:38:06;99836.19;;;-5.06;100.00
23643;BME280;11998;55.788;37.572;2023-02-17T05:39:07;99846.44;;;-5.08;100.00
23643;BME280;11998;55.788;37.572;2023-02-17T05:40:08;99841.75;;;-4.97;100.00
23643;BME280;11998;55.788;37.572;2023-02-17T05:41:09;99833.22;;;-4.96;100.00
23643;BME280;11998;55.788;37.572;2023-02-17T05:42:10;99837.63;;;-4.93;100.00
23643;BME280;11998;55.788;37.572;2023-02-17T05:43:10;99838.84;;;-4.85;100.00
23643;BME280;11998;55.788;37.572;2023-02-17T05:44:11;99837.13;;;-4.85;100.00